Terminal Aerodrome Forecast
Issued by NWS

Home | Current Version | Previous Version | Text Only | Print | Product List | Glossary On
Versions: 1 2 3 4 5 6 7 8 9 10 11 12 13 14 15 16 17 18 19 20 21
000
FTUS43 KAPX 291508 AAA
TAFTVC
TAF AMD
KTVC 291508Z 2915/3012 20011G18KT P6SM BKN060 BKN200
      TEMPO 2915/2917 -SHRA BKN040
     FM291800 20007KT P6SM VCSH SCT040 BKN100
     FM300100 VRB03KT P6SM BKN040
     FM300400 VRB03KT 6SM -SHRA OVC025
     FM300700 33004KT 5SM -SHRA OVC008=

USA.gov is the U.S. government's official web portal to all federal, state and local government web resources and services.